sensor_id;sensor_type;location;lat;lon;timestamp;P1;durP1;ratioP1;P2;durP2;ratioP2
61673;SDS011;47573;43.832;5.974;2022-09-09T10:12:00;7.88;;;4.28;;
61673;SDS011;47573;43.832;5.974;2022-09-09T10:17:16;5.32;;;3.40;;
61673;SDS011;47573;43.832;5.974;2022-09-09T10:27:29;10.55;;;7.20;;
61673;SDS011;47573;43.832;5.974;2022-09-09T10:32:37;10.73;;;6.65;;
61673;SDS011;47573;43.832;5.974;2022-09-09T10:37:42;24.33;;;15.75;;
61673;SDS011;47573;43.832;5.974;2022-09-09T10:43:03;28.38;;;17.02;;
61673;SDS011;47573;43.832;5.974;2022-09-09T10:48:14;18.27;;;11.25;;
61673;SDS011;47573;43.832;5.974;2022-09-09T10:53:28;39.28;;;23.67;;
61673;SDS011;47573;43.832;5.974;2022-09-09T10:58:40;39.97;;;27.15;;
61673;SDS011;47573;43.832;5.974;2022-09-09T11:03:44;36.50;;;23.92;;
61673;SDS011;47573;43.832;5.974;2022-09-09T11:08:49;16.88;;;11.65;;
61673;SDS011;47573;43.832;5.974;2022-09-09T11:13:55;14.80;;;9.52;;
61673;SDS011;47573;43.832;5.974;2022-09-09T11:19:01;12.02;;;7.18;;
61673;SDS011;47573;43.832;5.974;2022-09-09T11:24:04;11.18;;;5.43;;
61673;SDS011;47573;43.832;5.974;2022-09-09T11:29:22;7.05;;;4.68;;
61673;SDS011;47573;43.832;5.974;2022-09-09T11:34:37;4.88;;;3.75;;
61673;SDS011;47573;43.832;5.974;2022-09-09T11:39:51;3.72;;;3.10;;
61673;SDS011;47573;43.832;5.974;2022-09-09T11:45:10;2.67;;;2.47;;
61673;SDS011;47573;43.832;5.974;2022-09-09T11:50:27;3.03;;;2.58;;
61673;SDS011;47573;43.832;5.974;2022-09-09T11:55:32;5.30;;;3.00;;
61673;SDS011;47573;43.832;5.974;2022-09-09T12:00:36;5.32;;;2.50;;
61673;SDS011;47573;43.832;5.974;2022-09-09T12:05:39;2.80;;;2.38;;
61673;SDS011;47573;43.832;5.974;2022-09-09T12:10:52;2.90;;;2.53;;
61673;SDS011;47573;43.832;5.974;2022-09-09T12:15:58;3.72;;;2.40;;
61673;SDS011;47573;43.832;5.974;2022-09-09T12:21:01;3.33;;;2.50;;
61673;SDS011;47573;43.832;5.974;2022-09-09T12:26:13;8.55;;;3.00;;
61673;SDS011;47573;43.832;5.974;2022-09-09T12:31:31;4.55;;;2.22;;
61673;SDS011;47573;43.832;5.974;2022-09-09T12:36:35;3.42;;;2.10;;
61673;SDS011;47573;43.832;5.974;2022-09-09T12:41:37;20.75;;;6.63;;
61673;SDS011;47573;43.832;5.974;2022-09-09T12:46:39;2.70;;;2.25;;
61673;SDS011;47573;43.832;5.974;2022-09-09T12:51:41;2.45;;;2.20;;
61673;SDS011;47573;43.832;5.974;2022-09-09T12:56:45;2.38;;;2.08;;
61673;SDS011;47573;43.832;5.974;2022-09-09T13:01:54;2.50;;;2.33;;
61673;SDS011;47573;43.832;5.974;2022-09-09T13:07:04;2.45;;;2.25;;
61673;SDS011;47573;43.832;5.974;2022-09-09T13:12:06;2.30;;;2.10;;
61673;SDS011;47573;43.832;5.974;2022-09-09T13:17:17;2.47;;;2.28;;
61673;SDS011;47573;43.832;5.974;2022-09-09T13:22:20;2.60;;;2.40;;
61673;SDS011;47573;43.832;5.974;2022-09-09T13:27:28;2.80;;;2.60;;
61673;SDS011;47573;43.832;5.974;2022-09-09T13:32:31;2.50;;;2.30;;
61673;SDS011;47573;43.832;5.974;2022-09-09T13:37:33;2.92;;;2.40;;
61673;SDS011;47573;43.832;5.974;2022-09-09T13:42:37;2.20;;;2.10;;
61673;SDS011;47573;43.832;5.974;2022-09-09T13:47:42;2.40;;;2.22;;
61673;SDS011;47573;43.832;5.974;2022-09-09T13:52:42;2.35;;;2.17;;
61673;SDS011;47573;43.832;5.974;2022-09-09T13:57:50;2.55;;;2.35;;
61673;SDS011;47573;43.832;5.974;2022-09-09T14:02:53;2.80;;;2.20;;
61673;SDS011;47573;43.832;5.974;2022-09-09T14:07:53;2.97;;;2.47;;
61673;SDS011;47573;43.832;5.974;2022-09-09T14:12:53;2.78;;;2.58;;
61673;SDS011;47573;43.832;5.974;2022-09-09T14:17:55;2.47;;;2.28;;
61673;SDS011;47573;43.832;5.974;2022-09-09T14:22:56;2.60;;;2.40;;
61673;SDS011;47573;43.832;5.974;2022-09-09T14:27:56;2.50;;;2.30;;
61673;SDS011;47573;43.832;5.974;2022-09-09T14:32:58;2.60;;;2.40;;
61673;SDS011;47573;43.832;5.974;2022-09-09T14:37:59;3.03;;;2.42;;
61673;SDS011;47573;43.832;5.974;2022-09-09T14:42:59;2.65;;;2.45;;
61673;SDS011;47573;43.832;5.974;2022-09-09T14:48:01;2.67;;;2.47;;
61673;SDS011;47573;43.832;5.974;2022-09-09T14:53:03;3.67;;;2.33;;
61673;SDS011;47573;43.832;5.974;2022-09-09T14:58:03;4.97;;;2.25;;
61673;SDS011;47573;43.832;5.974;2022-09-09T15:03:05;4.65;;;2.40;;
61673;SDS011;47573;43.832;5.974;2022-09-09T15:08:06;3.53;;;2.63;;
61673;SDS011;47573;43.832;5.974;2022-09-09T15:13:06;3.53;;;2.40;;
61673;SDS011;47573;43.832;5.974;2022-09-09T15:18:08;2.90;;;2.53;;
61673;SDS011;47573;43.832;5.974;2022-09-09T15:23:09;37.95;;;19.08;;
61673;SDS011;47573;43.832;5.974;2022-09-09T15:28:09;40.85;;;27.00;;
61673;SDS011;47573;43.832;5.974;2022-09-09T15:33:11;68.80;;;44.47;;
61673;SDS011;47573;43.832;5.974;2022-09-09T15:38:11;69.53;;;45.25;;
61673;SDS011;47573;43.832;5.974;2022-09-09T15:43:12;60.28;;;38.65;;
61673;SDS011;47573;43.832;5.974;2022-09-09T15:48:14;50.75;;;34.70;;
61673;SDS011;47573;43.832;5.974;2022-09-09T15:53:14;77.43;;;50.70;;
61673;SDS011;47573;43.832;5.974;2022-09-09T15:58:15;47.83;;;32.65;;
61673;SDS011;47573;43.832;5.974;2022-09-09T16:03:17;26.83;;;18.33;;
61673;SDS011;47573;43.832;5.974;2022-09-09T16:08:17;26.25;;;18.15;;
61673;SDS011;47573;43.832;5.974;2022-09-09T16:13:18;44.25;;;28.58;;
61673;SDS011;47573;43.832;5.974;2022-09-09T16:18:19;55.55;;;33.88;;
61673;SDS011;47573;43.832;5.974;2022-09-09T16:23:20;63.13;;;38.25;;
61673;SDS011;47573;43.832;5.974;2022-09-09T16:28:20;58.55;;;34.80;;
61673;SDS011;47573;43.832;5.974;2022-09-09T16:33:23;106.25;;;61.95;;
61673;SDS011;47573;43.832;5.974;2022-09-09T16:38:23;95.90;;;51.97;;
61673;SDS011;47573;43.832;5.974;2022-09-09T16:43:24;92.18;;;54.00;;
61673;SDS011;47573;43.832;5.974;2022-09-09T16:48:26;72.60;;;41.33;;
61673;SDS011;47573;43.832;5.974;2022-09-09T16:53:31;90.82;;;52.38;;
61673;SDS011;47573;43.832;5.974;2022-09-09T16:58:32;85.25;;;44.58;;
61673;SDS011;47573;43.832;5.974;2022-09-09T17:03:34;96.55;;;54.58;;
61673;SDS011;47573;43.832;5.974;2022-09-09T17:08:34;108.82;;;62.33;;
61673;SDS011;47573;43.832;5.974;2022-09-09T17:13:35;90.68;;;54.05;;
61673;SDS011;47573;43.832;5.974;2022-09-09T17:18:37;105.70;;;60.40;;
61673;SDS011;47573;43.832;5.974;2022-09-09T17:23:37;143.90;;;84.47;;
61673;SDS011;47573;43.832;5.974;2022-09-09T17:28:38;112.00;;;67.22;;
61673;SDS011;47573;43.832;5.974;2022-09-09T17:33:42;104.15;;;63.70;;
61673;SDS011;47573;43.832;5.974;2022-09-09T17:38:44;85.47;;;51.15;;
61673;SDS011;47573;43.832;5.974;2022-09-09T17:43:45;92.47;;;56.72;;
61673;SDS011;47573;43.832;5.974;2022-09-09T17:48:49;82.95;;;48.47;;
61673;SDS011;47573;43.832;5.974;2022-09-09T17:53:51;67.00;;;40.55;;
61673;SDS011;47573;43.832;5.974;2022-09-09T17:58:53;67.72;;;39.15;;
61673;SDS011;47573;43.832;5.974;2022-09-09T18:03:55;74.43;;;41.17;;
61673;SDS011;47573;43.832;5.974;2022-09-09T18:08:57;84.82;;;44.65;;
61673;SDS011;47573;43.832;5.974;2022-09-09T18:14:00;106.72;;;56.20;;
61673;SDS011;47573;43.832;5.974;2022-09-09T18:19:04;92.43;;;49.90;;
61673;SDS011;47573;43.832;5.974;2022-09-09T18:24:08;97.80;;;48.90;;
61673;SDS011;47573;43.832;5.974;2022-09-09T18:29:09;94.40;;;50.08;;
61673;SDS011;47573;43.832;5.974;2022-09-09T18:34:13;84.15;;;42.78;;
61673;SDS011;47573;43.832;5.974;2022-09-09T18:39:16;110.93;;;58.80;;
61673;SDS011;47573;43.832;5.974;2022-09-09T18:44:18;157.20;;;94.72;;
61673;SDS011;47573;43.832;5.974;2022-09-09T18:49:21;88.90;;;50.22;;
61673;SDS011;47573;43.832;5.974;2022-09-09T18:54:24;88.83;;;46.23;;
61673;SDS011;47573;43.832;5.974;2022-09-09T18:59:25;65.97;;;32.83;;
61673;SDS011;47573;43.832;5.974;2022-09-09T19:04:27;59.17;;;29.45;;
61673;SDS011;47573;43.832;5.974;2022-09-09T19:09:30;61.47;;;30.75;;
61673;SDS011;47573;43.832;5.974;2022-09-09T19:14:32;136.02;;;78.45;;
61673;SDS011;47573;43.832;5.974;2022-09-09T19:19:34;91.47;;;54.33;;
61673;SDS011;47573;43.832;5.974;2022-09-09T19:24:34;69.15;;;36.95;;
61673;SDS011;47573;43.832;5.974;2022-09-09T19:29:35;68.90;;;33.65;;
61673;SDS011;47573;43.832;5.974;2022-09-09T19:34:37;73.25;;;38.25;;
61673;SDS011;47573;43.832;5.974;2022-09-09T19:39:38;90.05;;;47.78;;
61673;SDS011;47573;43.832;5.974;2022-09-09T19:44:38;72.20;;;38.50;;
61673;SDS011;47573;43.832;5.974;2022-09-09T19:49:40;71.65;;;37.47;;
61673;SDS011;47573;43.832;5.974;2022-09-09T19:54:41;80.07;;;44.75;;
61673;SDS011;47573;43.832;5.974;2022-09-09T19:59:41;96.50;;;52.53;;
61673;SDS011;47573;43.832;5.974;2022-09-09T20:04:43;116.35;;;64.95;;
61673;SDS011;47573;43.832;5.974;2022-09-09T20:09:43;91.82;;;50.55;;
61673;SDS011;47573;43.832;5.974;2022-09-09T20:14:44;68.90;;;37.38;;
61673;SDS011;47573;43.832;5.974;2022-09-09T20:19:46;58.65;;;32.80;;
61673;SDS011;47573;43.832;5.974;2022-09-09T20:24:46;78.20;;;45.63;;
61673;SDS011;47573;43.832;5.974;2022-09-09T20:29:47;69.30;;;37.15;;
61673;SDS011;47573;43.832;5.974;2022-09-09T20:34:49;52.55;;;28.80;;
61673;SDS011;47573;43.832;5.974;2022-09-09T20:39:49;47.13;;;25.02;;
61673;SDS011;47573;43.832;5.974;2022-09-09T20:44:50;47.92;;;23.63;;
61673;SDS011;47573;43.832;5.974;2022-09-09T20:49:51;67.97;;;33.15;;
61673;SDS011;47573;43.832;5.974;2022-09-09T20:54:52;76.85;;;36.83;;
61673;SDS011;47573;43.832;5.974;2022-09-09T20:59:52;80.43;;;37.95;;
61673;SDS011;47573;43.832;5.974;2022-09-09T21:04:54;81.28;;;37.55;;
61673;SDS011;47573;43.832;5.974;2022-09-09T21:09:55;79.18;;;37.60;;
61673;SDS011;47573;43.832;5.974;2022-09-09T21:14:55;73.55;;;35.42;;
61673;SDS011;47573;43.832;5.974;2022-09-09T21:19:57;82.13;;;39.58;;
61673;SDS011;47573;43.832;5.974;2022-09-09T21:24:58;75.78;;;35.22;;
61673;SDS011;47573;43.832;5.974;2022-09-09T21:29:58;80.53;;;39.42;;
61673;SDS011;47573;43.832;5.974;2022-09-09T21:35:00;75.78;;;38.72;;
61673;SDS011;47573;43.832;5.974;2022-09-09T21:40:03;84.20;;;41.47;;
61673;SDS011;47573;43.832;5.974;2022-09-09T21:45:04;84.72;;;40.65;;
61673;SDS011;47573;43.832;5.974;2022-09-09T21:50:07;81.30;;;41.47;;
61673;SDS011;47573;43.832;5.974;2022-09-09T21:55:08;70.25;;;34.05;;
61673;SDS011;47573;43.832;5.974;2022-09-09T22:00:10;79.78;;;41.20;;
61673;SDS011;47573;43.832;5.974;2022-09-09T22:05:13;113.32;;;56.92;;
61673;SDS011;47573;43.832;5.974;2022-09-09T22:10:13;115.63;;;58.30;;
61673;SDS011;47573;43.832;5.974;2022-09-09T22:15:14;108.43;;;56.50;;
61673;SDS011;47573;43.832;5.974;2022-09-09T22:20:16;113.38;;;58.08;;
61673;SDS011;47573;43.832;5.974;2022-09-09T22:25:17;104.75;;;54.53;;
61673;SDS011;47573;43.832;5.974;2022-09-09T22:30:17;109.28;;;54.47;;
61673;SDS011;47573;43.832;5.974;2022-09-09T22:35:19;102.28;;;54.15;;
61673;SDS011;47573;43.832;5.974;2022-09-09T22:40:19;106.47;;;54.00;;
61673;SDS011;47573;43.832;5.974;2022-09-09T22:45:20;105.07;;;54.78;;
61673;SDS011;47573;43.832;5.974;2022-09-09T22:50:22;103.30;;;56.13;;
61673;SDS011;47573;43.832;5.974;2022-09-09T22:55:22;122.35;;;70.35;;
61673;SDS011;47573;43.832;5.974;2022-09-09T23:00:23;163.75;;;95.28;;
61673;SDS011;47573;43.832;5.974;2022-09-09T23:05:25;140.77;;;80.88;;
61673;SDS011;47573;43.832;5.974;2022-09-09T23:10:26;138.50;;;76.93;;
61673;SDS011;47573;43.832;5.974;2022-09-09T23:15:27;110.55;;;65.20;;
61673;SDS011;47573;43.832;5.974;2022-09-09T23:20:29;116.85;;;66.38;;
61673;SDS011;47573;43.832;5.974;2022-09-09T23:25:29;106.95;;;61.42;;
61673;SDS011;47573;43.832;5.974;2022-09-09T23:30:30;108.60;;;59.90;;
61673;SDS011;47573;43.832;5.974;2022-09-09T23:35:32;101.55;;;56.40;;
61673;SDS011;47573;43.832;5.974;2022-09-09T23:40:33;106.53;;;61.25;;
61673;SDS011;47573;43.832;5.974;2022-09-09T23:45:33;95.95;;;56.92;;
61673;SDS011;47573;43.832;5.974;2022-09-09T23:50:35;101.45;;;54.70;;
61673;SDS011;47573;43.832;5.974;2022-09-09T23:55:36;92.45;;;52.60;;
